Johnson Valley, California
Current Conditions -  °F | °C
As of 4:56 PM on Tuesday 27 Jan 2015 (Local Time) from KNXP Reporting Station
Broken Clouds Broken Clouds  
Wind Chill: 59°   Ceiling: 3900
Heat Index: 59°   Visibility: 10mi
Dew Point: 50°   Wind: 0mph
Humidity: 72%   Direction: NA
Pressure: 30.26"   Gusts: NA
Location:  34.4465°N, 116.513°W
Report Text: KNXP 280056Z AUTO 00000KT 10SM BKN039 15/10 A3026 RMK AO2 SLP226 T01500100 $
Loading
Personal Weather Stations






























Interactive Weather Map New forecast layout! Learn more

10-Day Weather Forecast

Advertisements
Track Severe Weather on mobile